sensor_id;sensor_type;location;lat;lon;timestamp;P1;durP1;ratioP1;P2;durP2;ratioP2
43919;SDS011;29578;51.946;5.874;2022-09-13T00:00:50;1.42;;;1.20;;
43919;SDS011;29578;51.946;5.874;2022-09-13T00:03:16;0.95;;;0.90;;
43919;SDS011;29578;51.946;5.874;2022-09-13T00:05:42;1.25;;;1.00;;
43919;SDS011;29578;51.946;5.874;2022-09-13T00:08:08;0.88;;;0.88;;
43919;SDS011;29578;51.946;5.874;2022-09-13T00:10:35;1.17;;;0.98;;
43919;SDS011;29578;51.946;5.874;2022-09-13T00:13:03;1.05;;;0.95;;
43919;SDS011;29578;51.946;5.874;2022-09-13T00:15:29;1.10;;;1.00;;
43919;SDS011;29578;51.946;5.874;2022-09-13T00:17:55;1.38;;;1.10;;
43919;SDS011;29578;51.946;5.874;2022-09-13T00:20:21;1.83;;;1.20;;
43919;SDS011;29578;51.946;5.874;2022-09-13T00:22:47;1.60;;;1.10;;
43919;SDS011;29578;51.946;5.874;2022-09-13T00:25:13;1.02;;;0.90;;
43919;SDS011;29578;51.946;5.874;2022-09-13T00:27:39;1.10;;;1.00;;
43919;SDS011;29578;51.946;5.874;2022-09-13T00:30:05;1.05;;;0.98;;
43919;SDS011;29578;51.946;5.874;2022-09-13T00:32:33;1.20;;;0.90;;
43919;SDS011;29578;51.946;5.874;2022-09-13T00:35:00;0.95;;;0.90;;
43919;SDS011;29578;51.946;5.874;2022-09-13T00:37:27;1.08;;;0.90;;
43919;SDS011;29578;51.946;5.874;2022-09-13T00:39:53;1.10;;;1.00;;
43919;SDS011;29578;51.946;5.874;2022-09-13T00:42:23;1.27;;;1.15;;
43919;SDS011;29578;51.946;5.874;2022-09-13T00:44:54;0.93;;;0.90;;
43919;SDS011;29578;51.946;5.874;2022-09-13T00:47:24;1.42;;;1.15;;
43919;SDS011;29578;51.946;5.874;2022-09-13T00:49:59;0.98;;;0.80;;
43919;SDS011;29578;51.946;5.874;2022-09-13T00:52:32;1.17;;;0.88;;
43919;SDS011;29578;51.946;5.874;2022-09-13T00:55:00;1.00;;;0.90;;
43919;SDS011;29578;51.946;5.874;2022-09-13T00:57:30;1.15;;;1.00;;
43919;SDS011;29578;51.946;5.874;2022-09-13T01:00:04;1.60;;;1.02;;
43919;SDS011;29578;51.946;5.874;2022-09-13T01:02:39;1.20;;;1.08;;
43919;SDS011;29578;51.946;5.874;2022-09-13T01:05:07;1.20;;;1.10;;
43919;SDS011;29578;51.946;5.874;2022-09-13T01:07:35;1.05;;;0.95;;
43919;SDS011;29578;51.946;5.874;2022-09-13T01:10:02;1.77;;;1.10;;
43919;SDS011;29578;51.946;5.874;2022-09-13T01:15:20;0.90;;;0.85;;
43919;SDS011;29578;51.946;5.874;2022-09-13T01:17:45;1.17;;;1.00;;
43919;SDS011;29578;51.946;5.874;2022-09-13T01:20:13;1.08;;;0.98;;
43919;SDS011;29578;51.946;5.874;2022-09-13T01:25:45;1.10;;;1.00;;
43919;SDS011;29578;51.946;5.874;2022-09-13T01:28:36;0.88;;;0.80;;
43919;SDS011;29578;51.946;5.874;2022-09-13T01:31:30;1.20;;;1.10;;
43919;SDS011;29578;51.946;5.874;2022-09-13T01:37:21;1.00;;;0.90;;
43919;SDS011;29578;51.946;5.874;2022-09-13T01:40:12;0.95;;;0.88;;
43919;SDS011;29578;51.946;5.874;2022-09-13T01:42:56;0.80;;;0.80;;
43919;SDS011;29578;51.946;5.874;2022-09-13T01:45:59;1.05;;;0.90;;
43919;SDS011;29578;51.946;5.874;2022-09-13T01:48:44;1.08;;;0.98;;
43919;SDS011;29578;51.946;5.874;2022-09-13T01:51:21;1.20;;;1.10;;
43919;SDS011;29578;51.946;5.874;2022-09-13T01:53:57;1.15;;;1.05;;
43919;SDS011;29578;51.946;5.874;2022-09-13T01:56:37;0.80;;;0.80;;
43919;SDS011;29578;51.946;5.874;2022-09-13T01:59:15;1.35;;;1.00;;
43919;SDS011;29578;51.946;5.874;2022-09-13T02:01:54;0.80;;;0.80;;
43919;SDS011;29578;51.946;5.874;2022-09-13T02:04:26;1.00;;;0.90;;
43919;SDS011;29578;51.946;5.874;2022-09-13T02:07:06;0.90;;;0.90;;
43919;SDS011;29578;51.946;5.874;2022-09-13T02:09:39;0.88;;;0.85;;
43919;SDS011;29578;51.946;5.874;2022-09-13T02:12:11;1.00;;;0.90;;
43919;SDS011;29578;51.946;5.874;2022-09-13T02:14:43;0.73;;;0.73;;
43919;SDS011;29578;51.946;5.874;2022-09-13T02:17:12;1.10;;;1.00;;
43919;SDS011;29578;51.946;5.874;2022-09-13T02:19:58;0.85;;;0.85;;
43919;SDS011;29578;51.946;5.874;2022-09-13T02:22:29;1.13;;;0.90;;
43919;SDS011;29578;51.946;5.874;2022-09-13T02:24:59;1.20;;;1.10;;
43919;SDS011;29578;51.946;5.874;2022-09-13T02:27:32;0.95;;;0.90;;
43919;SDS011;29578;51.946;5.874;2022-09-13T02:30:02;1.30;;;1.10;;
43919;SDS011;29578;51.946;5.874;2022-09-13T02:32:33;1.13;;;0.95;;
43919;SDS011;29578;51.946;5.874;2022-09-13T02:35:17;1.10;;;0.90;;
43919;SDS011;29578;51.946;5.874;2022-09-13T02:37:49;1.33;;;1.00;;
43919;SDS011;29578;51.946;5.874;2022-09-13T02:40:27;0.90;;;0.90;;
43919;SDS011;29578;51.946;5.874;2022-09-13T02:43:00;0.80;;;0.80;;
43919;SDS011;29578;51.946;5.874;2022-09-13T02:45:38;0.70;;;0.70;;
43919;SDS011;29578;51.946;5.874;2022-09-13T02:48:18;1.08;;;1.00;;
43919;SDS011;29578;51.946;5.874;2022-09-13T02:50:58;1.05;;;0.93;;
43919;SDS011;29578;51.946;5.874;2022-09-13T02:53:37;1.63;;;1.10;;
43919;SDS011;29578;51.946;5.874;2022-09-13T02:56:21;1.23;;;1.10;;
43919;SDS011;29578;51.946;5.874;2022-09-13T02:59:03;1.27;;;1.10;;
43919;SDS011;29578;51.946;5.874;2022-09-13T03:01:43;1.10;;;0.95;;
43919;SDS011;29578;51.946;5.874;2022-09-13T03:04:13;1.95;;;1.30;;
43919;SDS011;29578;51.946;5.874;2022-09-13T03:06:39;1.40;;;1.13;;
43919;SDS011;29578;51.946;5.874;2022-09-13T03:09:06;1.33;;;1.20;;
43919;SDS011;29578;51.946;5.874;2022-09-13T03:17:26;1.20;;;0.80;;
43919;SDS011;29578;51.946;5.874;2022-09-13T03:20:08;1.15;;;1.00;;
43919;SDS011;29578;51.946;5.874;2022-09-13T03:25:29;1.20;;;1.00;;
43919;SDS011;29578;51.946;5.874;2022-09-13T03:28:12;0.90;;;0.90;;
43919;SDS011;29578;51.946;5.874;2022-09-13T03:30:56;0.80;;;0.80;;
43919;SDS011;29578;51.946;5.874;2022-09-13T03:33:39;1.02;;;0.93;;
43919;SDS011;29578;51.946;5.874;2022-09-13T03:36:13;1.00;;;0.90;;
43919;SDS011;29578;51.946;5.874;2022-09-13T03:38:51;1.02;;;0.93;;
43919;SDS011;29578;51.946;5.874;2022-09-13T03:41:41;1.38;;;1.02;;
43919;SDS011;29578;51.946;5.874;2022-09-13T03:44:11;1.58;;;1.00;;
43919;SDS011;29578;51.946;5.874;2022-09-13T03:46:40;1.20;;;1.10;;
43919;SDS011;29578;51.946;5.874;2022-09-13T03:49:11;1.00;;;0.90;;
43919;SDS011;29578;51.946;5.874;2022-09-13T03:54:09;0.98;;;0.90;;
43919;SDS011;29578;51.946;5.874;2022-09-13T03:56:40;1.00;;;0.90;;
43919;SDS011;29578;51.946;5.874;2022-09-13T03:59:06;1.33;;;1.05;;
43919;SDS011;29578;51.946;5.874;2022-09-13T04:01:32;1.00;;;0.90;;
43919;SDS011;29578;51.946;5.874;2022-09-13T04:03:58;1.35;;;1.05;;
43919;SDS011;29578;51.946;5.874;2022-09-13T04:06:24;1.35;;;1.02;;
43919;SDS011;29578;51.946;5.874;2022-09-13T04:08:50;1.35;;;1.00;;
43919;SDS011;29578;51.946;5.874;2022-09-13T04:11:16;0.95;;;0.90;;
43919;SDS011;29578;51.946;5.874;2022-09-13T04:13:41;1.92;;;1.00;;
43919;SDS011;29578;51.946;5.874;2022-09-13T04:16:08;1.70;;;1.30;;
43919;SDS011;29578;51.946;5.874;2022-09-13T04:18:34;1.50;;;1.25;;
43919;SDS011;29578;51.946;5.874;2022-09-13T04:21:00;1.70;;;1.40;;
43919;SDS011;29578;51.946;5.874;2022-09-13T04:23:27;1.67;;;1.20;;
43919;SDS011;29578;51.946;5.874;2022-09-13T04:25:54;1.33;;;1.23;;
43919;SDS011;29578;51.946;5.874;2022-09-13T04:28:25;1.10;;;1.00;;
43919;SDS011;29578;51.946;5.874;2022-09-13T04:30:50;1.40;;;1.13;;
43919;SDS011;29578;51.946;5.874;2022-09-13T04:33:16;1.63;;;1.20;;
43919;SDS011;29578;51.946;5.874;2022-09-13T04:35:42;1.08;;;0.90;;
43919;SDS011;29578;51.946;5.874;2022-09-13T04:38:08;1.35;;;1.23;;
43919;SDS011;29578;51.946;5.874;2022-09-13T04:40:34;1.20;;;1.05;;
43919;SDS011;29578;51.946;5.874;2022-09-13T04:43:01;1.17;;;1.00;;
43919;SDS011;29578;51.946;5.874;2022-09-13T04:45:28;1.40;;;1.08;;
43919;SDS011;29578;51.946;5.874;2022-09-13T04:47:54;1.27;;;1.08;;
43919;SDS011;29578;51.946;5.874;2022-09-13T04:50:20;0.95;;;0.95;;
43919;SDS011;29578;51.946;5.874;2022-09-13T04:52:48;1.45;;;1.00;;
43919;SDS011;29578;51.946;5.874;2022-09-13T04:55:13;1.20;;;1.00;;
43919;SDS011;29578;51.946;5.874;2022-09-13T04:57:40;1.35;;;1.20;;
43919;SDS011;29578;51.946;5.874;2022-09-13T05:00:06;1.08;;;0.98;;
43919;SDS011;29578;51.946;5.874;2022-09-13T05:02:32;2.25;;;1.20;;
43919;SDS011;29578;51.946;5.874;2022-09-13T05:04:58;1.90;;;1.13;;
43919;SDS011;29578;51.946;5.874;2022-09-13T05:07:24;1.30;;;1.13;;
43919;SDS011;29578;51.946;5.874;2022-09-13T05:09:50;1.55;;;1.17;;
43919;SDS011;29578;51.946;5.874;2022-09-13T05:12:16;1.30;;;1.20;;
43919;SDS011;29578;51.946;5.874;2022-09-13T05:14:41;1.40;;;1.25;;
43919;SDS011;29578;51.946;5.874;2022-09-13T05:17:07;1.38;;;1.23;;
43919;SDS011;29578;51.946;5.874;2022-09-13T05:19:33;1.60;;;1.20;;
43919;SDS011;29578;51.946;5.874;2022-09-13T05:21:59;1.85;;;1.10;;
43919;SDS011;29578;51.946;5.874;2022-09-13T05:24:26;1.65;;;1.17;;
43919;SDS011;29578;51.946;5.874;2022-09-13T05:26:51;1.13;;;1.02;;
43919;SDS011;29578;51.946;5.874;2022-09-13T05:29:17;1.20;;;1.10;;
43919;SDS011;29578;51.946;5.874;2022-09-13T05:31:43;1.48;;;1.20;;
43919;SDS011;29578;51.946;5.874;2022-09-13T05:34:10;1.17;;;1.00;;
43919;SDS011;29578;51.946;5.874;2022-09-13T05:36:38;1.25;;;1.02;;
43919;SDS011;29578;51.946;5.874;2022-09-13T05:39:04;1.85;;;1.30;;
43919;SDS011;29578;51.946;5.874;2022-09-13T05:41:32;1.92;;;1.42;;
43919;SDS011;29578;51.946;5.874;2022-09-13T05:43:58;1.38;;;1.25;;
43919;SDS011;29578;51.946;5.874;2022-09-13T05:46:24;1.55;;;1.10;;
43919;SDS011;29578;51.946;5.874;2022-09-13T05:48:49;1.02;;;0.88;;
43919;SDS011;29578;51.946;5.874;2022-09-13T05:51:16;1.17;;;0.98;;
43919;SDS011;29578;51.946;5.874;2022-09-13T05:53:44;1.30;;;1.10;;
43919;SDS011;29578;51.946;5.874;2022-09-13T05:56:13;1.20;;;1.05;;
43919;SDS011;29578;51.946;5.874;2022-09-13T05:58:41;1.35;;;1.10;;
43919;SDS011;29578;51.946;5.874;2022-09-13T06:01:09;1.50;;;1.20;;
43919;SDS011;29578;51.946;5.874;2022-09-13T06:03:35;1.23;;;1.00;;
43919;SDS011;29578;51.946;5.874;2022-09-13T06:06:01;0.98;;;0.93;;
43919;SDS011;29578;51.946;5.874;2022-09-13T06:08:28;1.38;;;1.13;;
43919;SDS011;29578;51.946;5.874;2022-09-13T06:10:58;1.13;;;1.02;;
43919;SDS011;29578;51.946;5.874;2022-09-13T06:13:25;1.23;;;1.00;;
43919;SDS011;29578;51.946;5.874;2022-09-13T06:15:53;0.90;;;0.90;;
43919;SDS011;29578;51.946;5.874;2022-09-13T06:18:24;1.30;;;1.08;;
43919;SDS011;29578;51.946;5.874;2022-09-13T06:20:50;1.45;;;1.08;;
43919;SDS011;29578;51.946;5.874;2022-09-13T06:23:22;1.10;;;1.00;;
43919;SDS011;29578;51.946;5.874;2022-09-13T06:25:48;1.38;;;1.10;;
43919;SDS011;29578;51.946;5.874;2022-09-13T06:28:14;1.08;;;0.98;;
43919;SDS011;29578;51.946;5.874;2022-09-13T06:30:39;1.23;;;1.00;;
43919;SDS011;29578;51.946;5.874;2022-09-13T06:33:05;1.75;;;1.23;;
43919;SDS011;29578;51.946;5.874;2022-09-13T06:35:31;1.33;;;1.13;;
43919;SDS011;29578;51.946;5.874;2022-09-13T06:37:57;1.10;;;0.80;;
43919;SDS011;29578;51.946;5.874;2022-09-13T06:40:23;1.58;;;1.30;;
43919;SDS011;29578;51.946;5.874;2022-09-13T06:42:49;1.15;;;1.00;;
43919;SDS011;29578;51.946;5.874;2022-09-13T06:45:15;1.30;;;1.00;;
43919;SDS011;29578;51.946;5.874;2022-09-13T06:47:42;1.10;;;1.00;;
43919;SDS011;29578;51.946;5.874;2022-09-13T06:50:09;3.55;;;1.48;;
43919;SDS011;29578;51.946;5.874;2022-09-13T06:52:34;3.67;;;1.60;;
43919;SDS011;29578;51.946;5.874;2022-09-13T06:55:00;1.45;;;1.30;;
43919;SDS011;29578;51.946;5.874;2022-09-13T06:57:28;1.45;;;1.23;;
43919;SDS011;29578;51.946;5.874;2022-09-13T06:59:55;1.40;;;1.20;;
43919;SDS011;29578;51.946;5.874;2022-09-13T07:02:20;1.77;;;1.27;;
43919;SDS011;29578;51.946;5.874;2022-09-13T07:04:46;3.00;;;1.45;;
43919;SDS011;29578;51.946;5.874;2022-09-13T07:07:12;1.50;;;1.30;;
43919;SDS011;29578;51.946;5.874;2022-09-13T07:09:37;1.50;;;1.20;;
43919;SDS011;29578;51.946;5.874;2022-09-13T07:12:04;2.58;;;1.40;;
43919;SDS011;29578;51.946;5.874;2022-09-13T07:14:31;2.22;;;1.45;;
43919;SDS011;29578;51.946;5.874;2022-09-13T07:16:57;1.58;;;1.27;;
43919;SDS011;29578;51.946;5.874;2022-09-13T07:19:24;1.60;;;1.30;;
43919;SDS011;29578;51.946;5.874;2022-09-13T07:21:51;1.63;;;1.20;;
43919;SDS011;29578;51.946;5.874;2022-09-13T07:24:18;1.55;;;1.30;;
43919;SDS011;29578;51.946;5.874;2022-09-13T07:26:45;2.13;;;1.65;;
43919;SDS011;29578;51.946;5.874;2022-09-13T07:29:12;1.50;;;1.20;;
43919;SDS011;29578;51.946;5.874;2022-09-13T07:31:41;2.08;;;1.60;;
43919;SDS011;29578;51.946;5.874;2022-09-13T07:34:12;1.58;;;1.35;;
43919;SDS011;29578;51.946;5.874;2022-09-13T07:39:05;2.67;;;1.67;;
43919;SDS011;29578;51.946;5.874;2022-09-13T07:41:32;1.70;;;1.40;;
43919;SDS011;29578;51.946;5.874;2022-09-13T07:43:58;1.52;;;1.30;;
43919;SDS011;29578;51.946;5.874;2022-09-13T07:46:26;2.30;;;1.70;;
43919;SDS011;29578;51.946;5.874;2022-09-13T07:48:56;2.42;;;1.50;;
43919;SDS011;29578;51.946;5.874;2022-09-13T07:51:26;2.03;;;1.45;;
43919;SDS011;29578;51.946;5.874;2022-09-13T07:53:56;2.90;;;1.95;;
43919;SDS011;29578;51.946;5.874;2022-09-13T07:56:25;2.85;;;1.70;;
43919;SDS011;29578;51.946;5.874;2022-09-13T07:58:57;2.13;;;1.52;;
43919;SDS011;29578;51.946;5.874;2022-09-13T08:01:25;2.88;;;1.92;;
43919;SDS011;29578;51.946;5.874;2022-09-13T08:03:53;4.18;;;1.80;;
43919;SDS011;29578;51.946;5.874;2022-09-13T08:06:24;3.70;;;2.17;;
43919;SDS011;29578;51.946;5.874;2022-09-13T08:08:51;2.92;;;1.85;;
43919;SDS011;29578;51.946;5.874;2022-09-13T08:11:19;2.38;;;1.80;;
43919;SDS011;29578;51.946;5.874;2022-09-13T08:13:48;2.28;;;1.58;;
43919;SDS011;29578;51.946;5.874;2022-09-13T08:16:15;1.88;;;1.38;;
43919;SDS011;29578;51.946;5.874;2022-09-13T08:18:43;3.28;;;1.98;;
43919;SDS011;29578;51.946;5.874;2022-09-13T08:21:12;1.98;;;1.40;;
43919;SDS011;29578;51.946;5.874;2022-09-13T08:23:38;1.73;;;1.30;;
43919;SDS011;29578;51.946;5.874;2022-09-13T08:26:04;2.55;;;1.58;;
43919;SDS011;29578;51.946;5.874;2022-09-13T08:28:32;1.23;;;1.00;;
43919;SDS011;29578;51.946;5.874;2022-09-13T08:31:07;1.98;;;1.40;;
43919;SDS011;29578;51.946;5.874;2022-09-13T08:33:35;1.58;;;1.40;;
43919;SDS011;29578;51.946;5.874;2022-09-13T08:36:02;1.65;;;1.38;;
43919;SDS011;29578;51.946;5.874;2022-09-13T08:38:29;2.00;;;1.50;;
43919;SDS011;29578;51.946;5.874;2022-09-13T08:40:57;2.80;;;1.60;;
43919;SDS011;29578;51.946;5.874;2022-09-13T08:46:23;1.80;;;1.17;;
43919;SDS011;29578;51.946;5.874;2022-09-13T08:48:53;1.90;;;1.20;;
43919;SDS011;29578;51.946;5.874;2022-09-13T08:51:25;1.08;;;0.98;;
43919;SDS011;29578;51.946;5.874;2022-09-13T08:53:55;2.53;;;1.50;;
43919;SDS011;29578;51.946;5.874;2022-09-13T09:02:04;1.30;;;1.10;;
43919;SDS011;29578;51.946;5.874;2022-09-13T09:04:44;1.67;;;1.35;;
43919;SDS011;29578;51.946;5.874;2022-09-13T09:09:51;1.98;;;1.23;;
43919;SDS011;29578;51.946;5.874;2022-09-13T09:12:25;1.20;;;1.10;;
43919;SDS011;29578;51.946;5.874;2022-09-13T09:15:13;1.73;;;1.13;;
43919;SDS011;29578;51.946;5.874;2022-09-13T09:17:50;2.58;;;1.50;;
43919;SDS011;29578;51.946;5.874;2022-09-13T09:20:24;1.67;;;1.10;;
43919;SDS011;29578;51.946;5.874;2022-09-13T09:23:12;1.50;;;1.33;;
43919;SDS011;29578;51.946;5.874;2022-09-13T09:25:41;1.77;;;1.40;;
43919;SDS011;29578;51.946;5.874;2022-09-13T09:28:11;2.05;;;1.73;;
43919;SDS011;29578;51.946;5.874;2022-09-13T09:30:43;2.97;;;1.80;;
43919;SDS011;29578;51.946;5.874;2022-09-13T09:33:26;1.48;;;1.30;;
43919;SDS011;29578;51.946;5.874;2022-09-13T09:36:19;1.40;;;1.20;;
43919;SDS011;29578;51.946;5.874;2022-09-13T09:38:56;1.63;;;1.30;;
43919;SDS011;29578;51.946;5.874;2022-09-13T09:41:26;1.33;;;1.23;;
43919;SDS011;29578;51.946;5.874;2022-09-13T09:43:58;1.70;;;1.40;;
43919;SDS011;29578;51.946;5.874;2022-09-13T09:46:41;1.27;;;1.10;;
43919;SDS011;29578;51.946;5.874;2022-09-13T09:49:16;1.80;;;1.30;;
43919;SDS011;29578;51.946;5.874;2022-09-13T09:52:01;1.15;;;1.05;;
43919;SDS011;29578;51.946;5.874;2022-09-13T09:54:31;0.90;;;0.90;;
43919;SDS011;29578;51.946;5.874;2022-09-13T09:56:59;0.90;;;0.80;;
43919;SDS011;29578;51.946;5.874;2022-09-13T09:59:28;1.45;;;1.00;;
43919;SDS011;29578;51.946;5.874;2022-09-13T10:02:00;2.03;;;1.02;;
43919;SDS011;29578;51.946;5.874;2022-09-13T10:04:38;1.30;;;0.93;;
43919;SDS011;29578;51.946;5.874;2022-09-13T10:09:56;1.75;;;1.30;;
43919;SDS011;29578;51.946;5.874;2022-09-13T10:12:33;1.60;;;1.20;;
43919;SDS011;29578;51.946;5.874;2022-09-13T10:15:03;1.25;;;1.00;;
43919;SDS011;29578;51.946;5.874;2022-09-13T10:23:09;0.70;;;0.70;;
43919;SDS011;29578;51.946;5.874;2022-09-13T10:25:41;0.63;;;0.63;;
43919;SDS011;29578;51.946;5.874;2022-09-13T10:28:13;0.80;;;0.80;;
43919;SDS011;29578;51.946;5.874;2022-09-13T10:35:57;0.85;;;0.63;;
43919;SDS011;29578;51.946;5.874;2022-09-13T10:38:27;0.60;;;0.60;;
43919;SDS011;29578;51.946;5.874;2022-09-13T10:40:57;0.90;;;0.77;;
43919;SDS011;29578;51.946;5.874;2022-09-13T10:43:23;0.70;;;0.70;;
43919;SDS011;29578;51.946;5.874;2022-09-13T10:45:53;0.57;;;0.57;;
43919;SDS011;29578;51.946;5.874;2022-09-13T10:48:19;0.82;;;0.63;;
43919;SDS011;29578;51.946;5.874;2022-09-13T10:53:41;1.33;;;0.70;;
43919;SDS011;29578;51.946;5.874;2022-09-13T10:58:46;0.70;;;0.70;;
43919;SDS011;29578;51.946;5.874;2022-09-13T11:01:15;1.30;;;1.00;;
43919;SDS011;29578;51.946;5.874;2022-09-13T11:04:03;0.73;;;0.73;;
43919;SDS011;29578;51.946;5.874;2022-09-13T11:06:47;0.52;;;0.52;;
43919;SDS011;29578;51.946;5.874;2022-09-13T11:09:22;0.60;;;0.60;;
43919;SDS011;29578;51.946;5.874;2022-09-13T11:12:01;0.60;;;0.60;;
43919;SDS011;29578;51.946;5.874;2022-09-13T11:14:50;0.90;;;0.75;;
43919;SDS011;29578;51.946;5.874;2022-09-13T11:17:54;0.63;;;0.50;;
43919;SDS011;29578;51.946;5.874;2022-09-13T11:20:54;0.57;;;0.45;;
43919;SDS011;29578;51.946;5.874;2022-09-13T11:23:38;0.50;;;0.40;;
43919;SDS011;29578;51.946;5.874;2022-09-13T11:29:00;0.73;;;0.50;;
43919;SDS011;29578;51.946;5.874;2022-09-13T11:37:50;0.40;;;0.40;;
43919;SDS011;29578;51.946;5.874;2022-09-13T11:43:34;1.02;;;0.50;;
43919;SDS011;29578;51.946;5.874;2022-09-13T11:46:15;0.77;;;0.50;;
43919;SDS011;29578;51.946;5.874;2022-09-13T11:51:49;1.02;;;0.60;;
43919;SDS011;29578;51.946;5.874;2022-09-13T11:54:37;0.38;;;0.38;;
43919;SDS011;29578;51.946;5.874;2022-09-13T11:57:28;0.30;;;0.30;;
43919;SDS011;29578;51.946;5.874;2022-09-13T12:00:00;0.45;;;0.30;;
43919;SDS011;29578;51.946;5.874;2022-09-13T12:02:36;0.45;;;0.40;;
43919;SDS011;29578;51.946;5.874;2022-09-13T12:05:15;0.57;;;0.50;;
43919;SDS011;29578;51.946;5.874;2022-09-13T12:07:49;0.40;;;0.40;;
43919;SDS011;29578;51.946;5.874;2022-09-13T12:10:21;0.82;;;0.43;;
43919;SDS011;29578;51.946;5.874;2022-09-13T12:12:52;0.32;;;0.32;;
43919;SDS011;29578;51.946;5.874;2022-09-13T12:18:04;0.75;;;0.40;;
43919;SDS011;29578;51.946;5.874;2022-09-13T12:20:37;0.40;;;0.40;;
43919;SDS011;29578;51.946;5.874;2022-09-13T12:23:11;0.52;;;0.32;;
43919;SDS011;29578;51.946;5.874;2022-09-13T12:25:44;0.35;;;0.35;;
43919;SDS011;29578;51.946;5.874;2022-09-13T12:28:33;0.35;;;0.30;;
43919;SDS011;29578;51.946;5.874;2022-09-13T12:31:06;0.60;;;0.40;;
43919;SDS011;29578;51.946;5.874;2022-09-13T12:33:37;0.30;;;0.30;;
43919;SDS011;29578;51.946;5.874;2022-09-13T12:36:13;0.30;;;0.30;;
43919;SDS011;29578;51.946;5.874;2022-09-13T12:44:58;1.02;;;0.50;;
43919;SDS011;29578;51.946;5.874;2022-09-13T12:50:35;0.63;;;0.40;;
43919;SDS011;29578;51.946;5.874;2022-09-13T12:53:17;0.70;;;0.40;;
43919;SDS011;29578;51.946;5.874;2022-09-13T12:59:13;0.30;;;0.30;;
43919;SDS011;29578;51.946;5.874;2022-09-13T13:01:48;0.38;;;0.22;;
43919;SDS011;29578;51.946;5.874;2022-09-13T13:04:19;0.35;;;0.25;;
43919;SDS011;29578;51.946;5.874;2022-09-13T13:06:54;0.50;;;0.40;;
43919;SDS011;29578;51.946;5.874;2022-09-13T13:09:37;0.60;;;0.30;;
43919;SDS011;29578;51.946;5.874;2022-09-13T13:12:10;0.30;;;0.30;;
43919;SDS011;29578;51.946;5.874;2022-09-13T13:14:54;0.20;;;0.20;;
43919;SDS011;29578;51.946;5.874;2022-09-13T13:28:50;0.30;;;0.30;;
43919;SDS011;29578;51.946;5.874;2022-09-13T13:31:33;0.22;;;0.22;;
43919;SDS011;29578;51.946;5.874;2022-09-13T13:36:53;1.10;;;0.50;;
43919;SDS011;29578;51.946;5.874;2022-09-13T13:39:32;0.50;;;0.40;;
43919;SDS011;29578;51.946;5.874;2022-09-13T13:42:09;0.30;;;0.30;;
43919;SDS011;29578;51.946;5.874;2022-09-13T13:45:03;0.40;;;0.40;;
43919;SDS011;29578;51.946;5.874;2022-09-13T13:47:40;0.40;;;0.40;;
43919;SDS011;29578;51.946;5.874;2022-09-13T13:50:17;0.40;;;0.40;;
43919;SDS011;29578;51.946;5.874;2022-09-13T13:52:50;1.10;;;0.40;;
43919;SDS011;29578;51.946;5.874;2022-09-13T13:55:27;0.45;;;0.38;;
43919;SDS011;29578;51.946;5.874;2022-09-13T13:57:59;0.70;;;0.50;;
43919;SDS011;29578;51.946;5.874;2022-09-13T14:00:29;0.50;;;0.50;;
43919;SDS011;29578;51.946;5.874;2022-09-13T14:05:53;0.40;;;0.40;;
43919;SDS011;29578;51.946;5.874;2022-09-13T14:08:33;0.85;;;0.17;;
43919;SDS011;29578;51.946;5.874;2022-09-13T14:11:20;0.40;;;0.40;;
43919;SDS011;29578;51.946;5.874;2022-09-13T14:14:05;0.22;;;0.22;;
43919;SDS011;29578;51.946;5.874;2022-09-13T14:19:54;0.55;;;0.30;;
43919;SDS011;29578;51.946;5.874;2022-09-13T14:22:25;0.88;;;0.40;;
43919;SDS011;29578;51.946;5.874;2022-09-13T14:24:53;0.60;;;0.25;;
43919;SDS011;29578;51.946;5.874;2022-09-13T14:27:29;0.30;;;0.30;;
43919;SDS011;29578;51.946;5.874;2022-09-13T14:30:02;0.70;;;0.50;;
43919;SDS011;29578;51.946;5.874;2022-09-13T14:32:41;0.70;;;0.40;;
43919;SDS011;29578;51.946;5.874;2022-09-13T14:38:07;0.30;;;0.30;;
43919;SDS011;29578;51.946;5.874;2022-09-13T14:40:37;0.47;;;0.40;;
43919;SDS011;29578;51.946;5.874;2022-09-13T14:43:12;0.20;;;0.20;;
43919;SDS011;29578;51.946;5.874;2022-09-13T14:45:40;0.25;;;0.25;;
43919;SDS011;29578;51.946;5.874;2022-09-13T14:48:18;0.30;;;0.30;;
43919;SDS011;29578;51.946;5.874;2022-09-13T14:50:51;0.20;;;0.20;;
43919;SDS011;29578;51.946;5.874;2022-09-13T14:53:22;0.60;;;0.35;;
43919;SDS011;29578;51.946;5.874;2022-09-13T14:55:51;0.40;;;0.22;;
43919;SDS011;29578;51.946;5.874;2022-09-13T14:58:29;0.98;;;0.30;;
43919;SDS011;29578;51.946;5.874;2022-09-13T15:01:08;0.20;;;0.20;;
43919;SDS011;29578;51.946;5.874;2022-09-13T15:03:39;0.52;;;0.30;;
43919;SDS011;29578;51.946;5.874;2022-09-13T15:06:27;0.40;;;0.30;;
43919;SDS011;29578;51.946;5.874;2022-09-13T15:08:56;0.30;;;0.30;;
43919;SDS011;29578;51.946;5.874;2022-09-13T15:11:38;0.68;;;0.40;;
43919;SDS011;29578;51.946;5.874;2022-09-13T15:17:11;0.30;;;0.30;;
43919;SDS011;29578;51.946;5.874;2022-09-13T15:19:40;0.30;;;0.30;;
43919;SDS011;29578;51.946;5.874;2022-09-13T15:22:12;0.30;;;0.30;;
43919;SDS011;29578;51.946;5.874;2022-09-13T15:24:45;0.20;;;0.20;;
43919;SDS011;29578;51.946;5.874;2022-09-13T15:27:15;0.20;;;0.20;;
43919;SDS011;29578;51.946;5.874;2022-09-13T15:29:48;0.30;;;0.30;;
43919;SDS011;29578;51.946;5.874;2022-09-13T15:32:28;0.30;;;0.30;;
43919;SDS011;29578;51.946;5.874;2022-09-13T15:34:58;0.73;;;0.47;;
43919;SDS011;29578;51.946;5.874;2022-09-13T15:37:29;0.30;;;0.30;;
43919;SDS011;29578;51.946;5.874;2022-09-13T15:40:10;0.80;;;0.55;;
43919;SDS011;29578;51.946;5.874;2022-09-13T15:42:44;0.52;;;0.50;;
43919;SDS011;29578;51.946;5.874;2022-09-13T15:45:12;0.20;;;0.20;;
43919;SDS011;29578;51.946;5.874;2022-09-13T15:47:38;0.55;;;0.50;;
43919;SDS011;29578;51.946;5.874;2022-09-13T15:50:04;0.68;;;0.40;;
43919;SDS011;29578;51.946;5.874;2022-09-13T15:52:30;0.40;;;0.40;;
43919;SDS011;29578;51.946;5.874;2022-09-13T15:54:56;0.50;;;0.30;;
43919;SDS011;29578;51.946;5.874;2022-09-13T15:57:24;0.57;;;0.40;;
43919;SDS011;29578;51.946;5.874;2022-09-13T15:59:51;0.82;;;0.30;;
43919;SDS011;29578;51.946;5.874;2022-09-13T16:02:24;0.30;;;0.30;;
43919;SDS011;29578;51.946;5.874;2022-09-13T16:04:52;0.52;;;0.40;;
43919;SDS011;29578;51.946;5.874;2022-09-13T16:07:18;1.08;;;0.40;;
43919;SDS011;29578;51.946;5.874;2022-09-13T16:09:46;0.30;;;0.30;;
43919;SDS011;29578;51.946;5.874;2022-09-13T16:12:12;0.40;;;0.40;;
43919;SDS011;29578;51.946;5.874;2022-09-13T16:14:39;0.77;;;0.40;;
43919;SDS011;29578;51.946;5.874;2022-09-13T16:17:08;0.30;;;0.30;;
43919;SDS011;29578;51.946;5.874;2022-09-13T16:19:42;0.20;;;0.20;;
43919;SDS011;29578;51.946;5.874;2022-09-13T16:22:08;0.22;;;0.20;;
43919;SDS011;29578;51.946;5.874;2022-09-13T16:24:34;0.10;;;0.10;;
43919;SDS011;29578;51.946;5.874;2022-09-13T16:27:02;0.20;;;0.20;;
43919;SDS011;29578;51.946;5.874;2022-09-13T16:29:28;0.57;;;0.30;;
43919;SDS011;29578;51.946;5.874;2022-09-13T16:31:54;0.20;;;0.20;;
43919;SDS011;29578;51.946;5.874;2022-09-13T16:34:21;0.20;;;0.20;;
43919;SDS011;29578;51.946;5.874;2022-09-13T16:36:47;0.10;;;0.10;;
43919;SDS011;29578;51.946;5.874;2022-09-13T16:39:13;0.38;;;0.30;;
43919;SDS011;29578;51.946;5.874;2022-09-13T16:41:39;0.30;;;0.20;;
43919;SDS011;29578;51.946;5.874;2022-09-13T16:44:05;0.52;;;0.40;;
43919;SDS011;29578;51.946;5.874;2022-09-13T16:46:31;0.22;;;0.20;;
43919;SDS011;29578;51.946;5.874;2022-09-13T16:48:57;0.65;;;0.20;;
43919;SDS011;29578;51.946;5.874;2022-09-13T16:51:23;0.20;;;0.20;;
43919;SDS011;29578;51.946;5.874;2022-09-13T16:53:50;0.98;;;0.28;;
43919;SDS011;29578;51.946;5.874;2022-09-13T16:56:17;0.20;;;0.20;;
43919;SDS011;29578;51.946;5.874;2022-09-13T16:58:45;0.43;;;0.28;;
43919;SDS011;29578;51.946;5.874;2022-09-13T17:01:12;0.10;;;0.10;;
43919;SDS011;29578;51.946;5.874;2022-09-13T17:03:40;0.43;;;0.30;;